Time;durP1;ratioP1;P1;durP2;ratioP2;P2;SDS_P1;SDS_P2;PMS_P1;PMS_P2;Temp;Humidity;BMP_temperature;BMP_pressure;BME280_temperature;BME280_humidity;BME280_pressure;Samples;Min_cycle;Max_cycle;Signal;HPM_P1;HPM_P2
2021/11/30 00:02:45;;;;;;;6.72;6.05;;;;;;;4.69;78.32;99820.50;10314489;28;20050;-63
2021/11/30 00:07:51;;;;;;;6.18;5.30;;;;;;;4.73;77.66;99836.03;10314449;28;20054;-63
2021/11/30 00:12:52;;;;;;;5.53;5.03;;;;;;;4.70;77.15;99835.38;10314402;28;20133;-63
2021/11/30 00:17:54;;;;;;;8.20;4.40;;;;;;;4.62;76.76;99808.66;10316661;28;20046;-62
2021/11/30 00:22:55;;;;;;;7.50;5.78;;;;;;;4.55;76.79;99814.31;10312207;28;20053;-63
2021/11/30 00:27:57;;;;;;;6.93;5.05;;;;;;;4.68;76.73;99822.28;10316541;28;20133;-63
2021/11/30 00:33:00;;;;;;;6.78;4.72;;;;;;;4.64;76.00;99812.03;10311242;28;20121;-63
2021/11/30 00:38:02;;;;;;;7.28;3.85;;;;;;;4.70;75.60;99809.88;10342371;23;20140;-60
2021/11/30 00:43:04;;;;;;;5.15;3.55;;;;;;;4.72;75.34;99818.50;10314653;28;20076;-59
2021/11/30 00:48:09;;;;;;;5.40;3.28;;;;;;;4.78;74.81;99831.31;10311772;28;20412;-60
2021/11/30 00:53:11;;;;;;;5.40;3.20;;;;;;;4.72;74.96;99831.69;10314252;28;20134;-61
2021/11/30 00:58:13;;;;;;;7.30;3.08;;;;;;;4.73;74.71;99843.13;10313752;28;20592;-60
2021/11/30 01:03:14;;;;;;;8.52;3.55;;;;;;;4.60;74.24;99840.38;10301347;28;20050;-60
2021/11/30 01:08:16;;;;;;;6.07;3.55;;;;;;;4.57;74.09;99849.31;10318145;28;20494;-60
2021/11/30 01:13:18;;;;;;;7.22;3.47;;;;;;;4.57;74.04;99846.69;10317587;28;20249;-60
2021/11/30 01:18:19;;;;;;;4.47;3.22;;;;;;;4.60;73.94;99853.56;10308923;28;20610;-60
2021/11/30 01:23:21;;;;;;;4.28;3.25;;;;;;;4.53;73.92;99847.81;10314913;28;20503;-60
2021/11/30 01:28:23;;;;;;;4.93;3.38;;;;;;;4.54;73.57;99849.50;10309271;28;20070;-58
2021/11/30 01:33:25;;;;;;;6.05;3.22;;;;;;;4.59;73.99;99844.81;10313535;28;20125;-60
2021/11/30 01:38:27;;;;;;;8.85;4.05;;;;;;;4.58;72.70;99845.75;10302696;28;20489;-59
2021/11/30 01:43:39;;;;;;;5.85;3.08;;;;;;;4.54;73.09;99838.13;10308644;28;20066;-59
2021/11/30 01:54:02;;;;;;;5.57;3.30;;;;;;;4.60;72.61;99854.41;10313547;28;20128;-60
2021/11/30 01:59:04;;;;;;;4.00;2.92;;;;;;;4.41;72.89;99846.81;10316236;28;20128;-59
2021/11/30 02:04:05;;;;;;;5.75;2.97;;;;;;;4.46;72.34;99867.59;10304415;28;20180;-60
2021/11/30 02:09:07;;;;;;;4.43;2.88;;;;;;;4.52;71.61;99859.31;10315791;28;20085;-59
2021/11/30 02:14:09;;;;;;;4.43;2.55;;;;;;;4.50;71.75;99847.16;10300619;28;20145;-59
2021/11/30 02:19:10;;;;;;;4.47;3.17;;;;;;;4.47;71.75;99860.53;10314737;28;20138;-65
2021/11/30 02:24:12;;;;;;;4.60;2.85;;;;;;;4.45;72.10;99855.34;10314504;28;20119;-59
2021/11/30 02:29:13;;;;;;;4.57;2.85;;;;;;;4.43;72.06;99846.69;10324665;28;20126;-59
2021/11/30 02:34:16;;;;;;;3.20;2.20;;;;;;;4.54;71.11;99848.66;10305193;28;20074;-59
2021/11/30 02:39:24;;;;;;;5.93;2.35;;;;;;;4.44;71.21;99848.38;10313086;28;20077;-59
2021/11/30 02:44:25;;;;;;;5.65;2.42;;;;;;;4.43;70.21;99852.81;10309127;28;20562;-60
2021/11/30 02:49:30;;;;;;;7.65;2.38;;;;;;;4.31;70.46;99836.88;10313530;28;20066;-60
2021/11/30 02:54:34;;;;;;;4.35;2.72;;;;;;;4.30;70.23;99809.69;10306107;28;20070;-60
2021/11/30 02:59:42;;;;;;;3.83;2.17;;;;;;;4.33;70.18;99808.69;10303692;28;20049;-60
2021/11/30 03:04:46;;;;;;;4.53;2.30;;;;;;;4.32;69.35;99806.97;10310992;28;20128;-60
2021/11/30 03:09:48;;;;;;;4.68;2.20;;;;;;;4.31;70.20;99794.72;10308701;28;20162;-60
2021/11/30 03:14:50;;;;;;;3.72;2.13;;;;;;;4.29;69.22;99776.38;10311252;28;20080;-60
2021/11/30 03:19:52;;;;;;;3.90;1.80;;;;;;;4.22;69.06;99769.81;10313689;28;20074;-60
2021/11/30 03:24:53;;;;;;;3.47;1.90;;;;;;;4.10;68.22;99770.56;10301405;28;20707;-61
2021/11/30 03:29:55;;;;;;;4.38;1.98;;;;;;;4.06;68.69;99764.63;10315945;28;20152;-60
2021/11/30 03:34:57;;;;;;;3.67;1.92;;;;;;;3.92;69.44;99756.72;10303852;28;20121;-60
2021/11/30 03:39:58;;;;;;;2.63;1.70;;;;;;;4.01;70.18;99766.72;10310804;28;20292;-60
2021/11/30 03:45:00;;;;;;;2.85;1.75;;;;;;;3.93;69.93;99761.06;10312174;28;20441;-60
2021/11/30 03:50:02;;;;;;;3.58;2.17;;;;;;;3.78;70.28;99753.13;10304028;28;21640;-63
2021/11/30 03:55:05;;;;;;;6.25;1.77;;;;;;;3.96;70.11;99758.22;10316080;28;20491;-61
2021/11/30 04:00:26;;;;;;;2.70;2.00;;;;;;;3.93;69.18;99763.69;10311421;28;20345;-60
2021/11/30 04:05:28;;;;;;;3.40;2.22;;;;;;;3.93;69.47;99747.88;10309046;28;20069;-60
2021/11/30 04:10:29;;;;;;;3.85;2.90;;;;;;;3.96;69.61;99747.69;10306728;28;20081;-60
2021/11/30 04:15:31;;;;;;;3.72;2.40;;;;;;;3.80;71.25;99746.00;10322818;28;20149;-64
2021/11/30 04:20:32;;;;;;;3.50;2.50;;;;;;;3.71;71.95;99723.72;10315115;28;20523;-60
2021/11/30 04:25:35;;;;;;;3.20;2.50;;;;;;;3.67;72.22;99731.88;10315185;28;20519;-60
2021/11/30 04:30:36;;;;;;;3.40;2.78;;;;;;;3.61;73.35;99706.78;10319370;28;20078;-59
2021/11/30 04:35:38;;;;;;;3.58;2.90;;;;;;;3.61;74.17;99696.25;10314230;28;20077;-60
2021/11/30 04:40:39;;;;;;;4.70;2.63;;;;;;;3.64;74.30;99680.28;10302910;28;20047;-60
2021/11/30 04:50:56;;;;;;;5.35;3.35;;;;;;;3.78;76.00;99654.88;10295828;28;20045;-61
2021/11/30 04:56:00;;;;;;;4.72;3.17;;;;;;;3.60;77.85;99641.06;10312399;28;20269;-61
2021/11/30 05:01:01;;;;;;;4.03;3.42;;;;;;;3.48;78.88;99627.75;10309814;28;20239;-60
2021/11/30 05:06:04;;;;;;;3.17;2.88;;;;;;;3.61;79.42;99619.09;10296257;28;20049;-60
2021/11/30 05:11:06;;;;;;;6.40;3.38;;;;;;;3.34;80.44;99607.50;10298005;28;20192;-60
2021/11/30 05:16:08;;;;;;;7.35;3.65;;;;;;;3.31;81.19;99610.31;10294044;28;20043;-60
2021/11/30 05:21:15;;;;;;;6.85;4.07;;;;;;;3.34;81.53;99589.09;10292782;28;20054;-60
2021/11/30 05:26:17;;;;;;;7.25;4.50;;;;;;;3.32;82.54;99574.38;10294441;28;20125;-60
2021/11/30 05:31:18;;;;;;;4.53;3.67;;;;;;;3.35;82.62;99571.53;10288791;28;20069;-61
2021/11/30 05:36:21;;;;;;;6.38;4.80;;;;;;;3.18;83.54;99572.56;10294187;28;20129;-60
2021/11/30 05:41:22;;;;;;;6.00;5.28;;;;;;;3.13;84.66;99567.56;10293196;28;20058;-60
2021/11/30 05:46:24;;;;;;;7.15;5.55;;;;;;;3.18;84.74;99568.16;10297271;28;20133;-61
2021/11/30 05:51:25;;;;;;;6.63;5.82;;;;;;;3.14;85.78;99558.75;10296644;28;20419;-60
2021/11/30 05:56:27;;;;;;;6.22;5.63;;;;;;;3.13;86.12;99550.97;10282424;28;20074;-60
2021/11/30 06:01:32;;;;;;;6.45;5.75;;;;;;;2.99;86.78;99542.13;10287521;28;20129;-60
2021/11/30 06:06:36;;;;;;;7.18;5.28;;;;;;;3.01;87.68;99536.75;10286808;28;20043;-60
2021/11/30 06:11:38;;;;;;;7.40;5.45;;;;;;;2.98;88.36;99532.53;10292415;28;20049;-60
2021/11/30 06:16:40;;;;;;;6.20;5.47;;;;;;;2.94;88.86;99527.56;10283814;28;20042;-60
2021/11/30 06:21:45;;;;;;;6.95;5.10;;;;;;;2.85;89.67;99510.53;10291498;28;20209;-61
2021/11/30 06:26:48;;;;;;;6.47;5.32;;;;;;;2.82;89.72;99498.47;10287035;28;20516;-60
2021/11/30 06:31:50;;;;;;;5.55;5.05;;;;;;;2.83;89.47;99515.91;10287504;28;20514;-60
2021/11/30 06:36:52;;;;;;;8.88;5.15;;;;;;;2.79;90.19;99509.16;10288592;28;20061;-62
2021/11/30 06:41:53;;;;;;;4.72;4.32;;;;;;;2.82;89.10;99497.59;10289374;28;20058;-61
2021/11/30 06:46:56;;;;;;;5.43;4.63;;;;;;;2.89;89.90;99498.09;10275764;28;20133;-59
2021/11/30 06:51:58;;;;;;;4.43;4.03;;;;;;;2.90;89.31;99499.75;10275007;28;20059;-61
2021/11/30 06:56:59;;;;;;;6.07;4.35;;;;;;;3.03;89.34;99491.97;10283956;28;20080;-61
2021/11/30 07:02:01;;;;;;;4.95;4.45;;;;;;;3.05;89.12;99480.44;10288670;28;20050;-61
2021/11/30 07:07:18;;;;;;;4.28;3.45;;;;;;;2.96;89.79;99491.53;10287040;28;20053;-60
2021/11/30 07:17:39;;;;;;;3.47;2.70;;;;;;;3.52;87.17;99489.75;10286752;28;20055;-61
2021/11/30 07:22:41;;;;;;;5.30;2.70;;;;;;;3.25;87.10;99499.38;10293139;28;20069;-61
2021/11/30 07:27:43;;;;;;;3.53;2.80;;;;;;;3.12;87.55;99489.63;10281800;28;20057;-62
2021/11/30 07:32:44;;;;;;;2.78;2.50;;;;;;;3.09;88.50;99484.56;10281172;28;20053;-60
2021/11/30 07:37:47;;;;;;;2.83;2.53;;;;;;;3.07;89.24;99482.97;10271913;28;20057;-61
2021/11/30 07:42:49;;;;;;;3.75;2.35;;;;;;;3.00;89.44;99487.75;10306854;28;20563;-60
2021/11/30 07:47:50;;;;;;;3.63;2.45;;;;;;;3.15;89.07;99485.94;10292075;28;20057;-60
2021/11/30 07:52:52;;;;;;;2.45;1.88;;;;;;;3.08;88.84;99485.50;10292436;28;20135;-59
2021/11/30 07:57:53;;;;;;;2.53;2.20;;;;;;;3.10;89.86;99485.41;10293542;28;20145;-60
2021/11/30 08:02:55;;;;;;;3.47;2.08;;;;;;;3.04;89.50;99464.75;10295928;28;20415;-62
2021/11/30 08:07:57;;;;;;;2.47;2.05;;;;;;;3.10;89.87;99459.94;10295924;28;20053;-60
2021/11/30 08:12:59;;;;;;;1.67;1.58;;;;;;;3.08;89.20;99461.84;10294541;28;20132;-61
2021/11/30 08:18:01;;;;;;;2.47;2.10;;;;;;;3.07;88.78;99464.56;10299373;28;20050;-61
2021/11/30 08:23:04;;;;;;;2.08;1.52;;;;;;;3.08;89.34;99435.53;10295613;28;20136;-60
2021/11/30 08:28:05;;;;;;;1.70;1.50;;;;;;;3.15;88.93;99439.47;10296460;28;20058;-60
2021/11/30 08:33:22;;;;;;;1.45;1.30;;;;;;;3.13;88.51;99432.63;10296323;28;20058;-61
2021/11/30 08:38:24;;;;;;;1.42;1.15;;;;;;;3.15;88.30;99441.25;10298346;28;20052;-63
2021/11/30 08:43:26;;;;;;;1.83;1.13;;;;;;;3.16;88.45;99433.25;10297736;28;20342;-59
2021/11/30 08:48:28;;;;;;;1.08;0.70;;;;;;;3.17;88.82;99434.94;10298214;28;20108;-61
2021/11/30 08:53:34;;;;;;;1.95;0.85;;;;;;;3.21;88.54;99440.03;10296807;28;20143;-61
2021/11/30 08:58:36;;;;;;;1.35;0.95;;;;;;;3.19;89.51;99427.81;10295729;28;20125;-61
2021/11/30 09:03:37;;;;;;;1.13;0.85;;;;;;;3.21;89.32;99429.50;10295174;28;21102;-61
2021/11/30 09:08:39;;;;;;;1.13;0.70;;;;;;;3.28;89.33;99431.63;10292442;28;20112;-61
2021/11/30 09:13:41;;;;;;;1.45;0.88;;;;;;;3.27;90.09;99413.31;10295879;28;20078;-60
2021/11/30 09:18:43;;;;;;;0.90;0.60;;;;;;;3.43;90.11;99421.09;10287707;28;20050;-62
2021/11/30 09:23:46;;;;;;;1.15;0.85;;;;;;;3.42;89.97;99420.22;10293330;28;20189;-60
2021/11/30 09:28:47;;;;;;;6.70;6.40;;;;;;;3.48;89.84;99414.59;10301798;28;20631;-59
2021/11/30 09:33:49;;;;;;;0.85;0.52;;;;;;;3.48;89.93;99416.38;10304777;28;20209;-59
2021/11/30 09:38:50;;;;;;;0.93;0.63;;;;;;;3.53;89.92;99416.94;10302397;28;20145;-59
2021/11/30 09:43:52;;;;;;;0.60;0.47;;;;;;;3.59;90.06;99408.63;10300208;28;20064;-60
2021/11/30 09:48:54;;;;;;;1.35;0.82;;;;;;;3.62;90.26;99403.16;10300396;28;20074;-62
2021/11/30 09:53:55;;;;;;;1.98;0.85;;;;;;;3.73;90.07;99405.09;10301497;28;20475;-61
2021/11/30 09:58:57;;;;;;;1.80;0.60;;;;;;;3.80;89.41;99398.47;10299889;28;20141;-60
2021/11/30 10:04:01;;;;;;;1.52;1.10;;;;;;;3.81;90.02;99394.88;10284734;28;20414;-60
2021/11/30 10:09:14;;;;;;;;;;;;;;;3.82;89.41;99388.69;10291916;28;21941;-63
2021/11/30 10:14:24;;;;;;;2.60;0.75;;;;;;;3.77;90.98;99374.13;10298301;28;19928;-60
2021/11/30 10:19:29;;;;;;;0.95;0.50;;;;;;;3.72;92.46;99364.78;10293900;28;20073;-60
2021/11/30 10:24:31;;;;;;;2.03;0.50;;;;;;;3.72;92.87;99350.75;10294525;28;20046;-59
2021/11/30 10:29:41;;;;;;;1.70;1.20;;;;;;;3.77;93.52;99353.06;10293698;28;20054;-61
2021/11/30 10:34:42;;;;;;;1.25;0.47;;;;;;;3.83;93.39;99379.84;10291955;28;20058;-60
2021/11/30 10:39:44;;;;;;;3.38;1.10;;;;;;;3.83;93.77;99364.06;10291069;28;20376;-60
2021/11/30 10:44:48;;;;;;;3.10;2.28;;;;;;;3.87;94.42;99347.13;10293973;28;20038;-59
2021/11/30 10:49:53;;;;;;;1.80;0.70;;;;;;;3.81;94.66;99368.56;10294507;28;20085;-60
2021/11/30 10:55:08;;;;;;;;;;;;;;;3.85;94.68;99342.88;10296764;28;20060;-61
2021/11/30 11:00:37;;;;;;;1.10;0.97;;;;;;;3.99;94.42;99332.25;10294946;28;20111;-61
2021/11/30 11:05:42;;;;;;;0.82;0.68;;;;;;;4.04;94.05;99326.69;10298422;28;20052;-60
2021/11/30 11:10:46;;;;;;;1.52;0.98;;;;;;;4.01;94.75;99338.28;10294662;28;20120;-60
2021/11/30 11:15:50;;;;;;;2.75;1.15;;;;;;;4.00;94.70;99325.22;10292969;28;20056;-59
2021/11/30 11:21:09;;;;;;;1.58;1.08;;;;;;;4.10;94.96;99339.44;10296298;28;20054;-60
2021/11/30 11:26:25;;;;;;;1.38;1.13;;;;;;;4.04;95.04;99342.50;10293069;28;20045;-60
2021/11/30 11:31:28;;;;;;;1.83;1.30;;;;;;;4.08;95.02;99333.41;10295756;28;20069;-59
2021/11/30 11:36:30;;;;;;;2.35;1.73;;;;;;;4.14;95.34;99329.53;10288714;28;20582;-60
2021/11/30 11:41:32;;;;;;;2.92;1.65;;;;;;;4.19;94.84;99311.63;10289844;28;20130;-59
2021/11/30 11:46:37;;;;;;;2.88;1.70;;;;;;;4.20;95.81;99318.56;10289138;28;20054;-61
2021/11/30 11:51:44;;;;;;;1.80;1.52;;;;;;;4.19;96.00;99306.38;10290744;28;20553;-61
2021/11/30 11:56:55;;;;;;;1.92;1.67;;;;;;;4.27;96.92;99305.84;10284942;28;20054;-61
2021/11/30 12:02:20;;;;;;;2.58;1.50;;;;;;;4.37;96.50;99298.97;10282199;28;20122;-62
2021/11/30 12:07:25;;;;;;;1.60;1.47;;;;;;;4.44;96.26;99302.84;10288353;28;20046;-60
2021/11/30 12:12:26;;;;;;;1.83;1.50;;;;;;;4.55;96.63;99310.84;10283525;28;20116;-60
2021/11/30 12:17:29;;;;;;;1.88;1.30;;;;;;;4.58;95.80;99297.44;10285650;28;20569;-61
2021/11/30 12:22:56;;;;;;;2.08;1.35;;;;;;;4.55;96.36;99310.84;10293693;28;20062;-59
2021/11/30 12:28:01;;;;;;;1.08;0.90;;;;;;;4.59;96.73;99278.06;10298030;28;20133;-60
2021/11/30 12:33:23;;;;;;;4.03;1.23;;;;;;;4.56;96.72;99278.28;10299213;28;20543;-59
2021/11/30 12:38:32;;;;;;;1.15;1.05;;;;;;;4.68;97.15;99276.53;10284365;28;20193;-61
2021/11/30 12:43:43;;;;;;;0.85;0.60;;;;;;;4.67;96.99;99295.09;10283784;28;20171;-59
2021/11/30 12:48:45;;;;;;;0.77;0.60;;;;;;;4.62;96.48;99289.31;10291436;28;20059;-61
2021/11/30 12:53:46;;;;;;;1.20;0.68;;;;;;;4.65;97.36;99292.56;10290771;28;20058;-60
2021/11/30 12:58:49;;;;;;;1.10;0.40;;;;;;;4.77;96.90;99296.13;10301436;28;20053;-60
2021/11/30 13:04:27;;;;;;;1.00;0.77;;;;;;;4.76;96.62;99299.75;10290192;28;20186;-59
2021/11/30 13:09:38;;;;;;;1.48;1.38;;;;;;;4.81;96.62;99302.88;10287914;28;20053;-59
2021/11/30 13:14:41;;;;;;;1.02;0.70;;;;;;;4.77;96.90;99293.50;10282023;28;20054;-59
2021/11/30 13:19:45;;;;;;;1.17;0.63;;;;;;;4.92;96.59;99289.78;10298436;28;20100;-59
2021/11/30 13:24:53;;;;;;;2.60;1.00;;;;;;;4.95;95.57;99302.75;10294578;28;20140;-60
2021/11/30 13:30:05;;;;;;;3.03;0.73;;;;;;;4.92;95.59;99281.88;10296059;28;20121;-60
2021/11/30 13:35:14;;;;;;;0.95;0.85;;;;;;;4.95;96.07;99288.69;10302753;28;20546;-60
2021/11/30 13:40:16;;;;;;;1.48;1.08;;;;;;;4.92;96.16;99281.00;10295934;28;20057;-60
2021/11/30 13:45:18;;;;;;;0.80;0.50;;;;;;;4.86;96.08;99287.56;10291854;28;20347;-61
2021/11/30 13:50:21;;;;;;;2.33;0.70;;;;;;;4.92;96.47;99295.03;10296674;28;20103;-60
2021/11/30 13:55:26;;;;;;;0.50;0.30;;;;;;;4.96;95.66;99275.38;10300970;28;20545;-60
2021/11/30 14:00:27;;;;;;;1.13;0.75;;;;;;;4.99;95.57;99286.69;10297537;28;20144;-61
2021/11/30 14:05:31;;;;;;;1.05;0.60;;;;;;;5.02;95.73;99275.91;10284522;28;20535;-60
2021/11/30 14:10:41;;;;;;;2.05;0.40;;;;;;;5.05;94.59;99283.59;10284300;28;20212;-60
2021/11/30 14:15:43;;;;;;;1.35;0.63;;;;;;;5.03;94.81;99286.34;10296877;28;20209;-59
2021/11/30 14:20:44;;;;;;;1.23;0.47;;;;;;;5.03;94.80;99285.50;10285672;28;20041;-59
2021/11/30 14:25:46;;;;;;;0.52;0.40;;;;;;;5.06;94.99;99307.22;10282070;28;20042;-59
2021/11/30 14:30:48;;;;;;;0.47;0.40;;;;;;;5.13;94.69;99316.38;10290729;28;20068;-60
2021/11/30 14:35:58;;;;;;;0.82;0.65;;;;;;;5.20;94.14;99329.13;10288801;28;20467;-60
2021/11/30 14:41:08;;;;;;;2.13;1.05;;;;;;;5.20;93.56;99311.50;10294115;28;20048;-59
2021/11/30 14:46:17;;;;;;;0.93;0.30;;;;;;;5.19;93.97;99325.63;10287804;28;20062;-59
2021/11/30 14:51:19;;;;;;;;;;;;;;;5.20;94.01;99327.31;10286200;28;20301;-59
2021/11/30 14:56:30;;;;;;;0.55;0.20;;;;;;;5.13;94.50;99324.31;10289439;28;20040;-60
2021/11/30 15:01:39;;;;;;;0.63;0.50;;;;;;;5.22;94.75;99330.69;10287388;28;20200;-60
2021/11/30 15:06:46;;;;;;;0.70;0.40;;;;;;;5.20;94.09;99324.69;10287935;28;20478;-59
2021/11/30 15:11:54;;;;;;;1.52;0.50;;;;;;;5.27;94.36;99325.09;10284851;28;20428;-59
2021/11/30 15:16:59;;;;;;;2.28;1.10;;;;;;;5.24;94.79;99320.88;10291893;28;21615;-59
2021/11/30 15:22:04;;;;;;;1.95;0.98;;;;;;;5.32;94.70;99342.25;10292971;28;20073;-60
2021/11/30 15:27:09;;;;;;;0.70;0.47;;;;;;;5.30;94.09;99315.13;10285657;28;20082;-59
2021/11/30 15:32:13;;;;;;;0.65;0.40;;;;;;;5.32;94.37;99313.22;10301792;28;20065;-59
2021/11/30 15:37:16;;;;;;;1.63;0.63;;;;;;;5.30;93.44;99315.13;10311052;28;20145;-59
2021/11/30 15:42:20;;;;;;;0.45;0.40;;;;;;;5.35;93.61;99316.59;10301501;28;20046;-59
2021/11/30 15:47:22;;;;;;;0.90;0.57;;;;;;;5.40;94.21;99325.00;10301432;28;20103;-59
2021/11/30 15:52:28;;;;;;;0.80;0.80;;;;;;;5.39;94.07;99325.97;10297308;28;20682;-59
2021/11/30 15:57:33;;;;;;;1.35;0.40;;;;;;;5.40;93.23;99330.28;10297898;28;20129;-60
2021/11/30 16:02:35;;;;;;;1.00;0.50;;;;;;;5.46;93.94;99327.19;10310250;28;20138;-60
2021/11/30 16:07:37;;;;;;;1.10;0.60;;;;;;;5.46;93.50;99345.69;10300390;28;20084;-60
2021/11/30 16:12:39;;;;;;;0.85;0.60;;;;;;;5.47;93.41;99342.09;10304262;28;20046;-59
2021/11/30 16:17:40;;;;;;;0.93;0.65;;;;;;;5.49;92.92;99329.59;10301748;28;20133;-59
2021/11/30 16:22:41;;;;;;;0.70;0.40;;;;;;;5.46;92.46;99343.91;10304219;28;20074;-60
2021/11/30 16:27:45;;;;;;;1.33;0.63;;;;;;;5.52;92.78;99353.13;10300776;28;21033;-59
2021/11/30 16:32:46;;;;;;;1.23;0.50;;;;;;;5.60;92.91;99348.16;10303040;28;20054;-60
2021/11/30 16:37:48;;;;;;;1.60;0.80;;;;;;;5.59;92.28;99351.72;10303805;28;20050;-58
2021/11/30 16:42:49;;;;;;;1.67;1.17;;;;;;;5.55;92.95;99354.72;10303438;28;20140;-60
2021/11/30 16:47:51;;;;;;;0.68;0.50;;;;;;;5.58;92.90;99360.59;10306455;28;20046;-60
2021/11/30 16:52:52;;;;;;;1.25;1.02;;;;;;;5.54;93.19;99375.00;10296407;28;20141;-60
2021/11/30 16:57:54;;;;;;;1.88;1.02;;;;;;;5.62;93.82;99387.63;10307247;28;20053;-59
2021/11/30 17:02:55;;;;;;;2.03;1.20;;;;;;;5.61;93.58;99380.66;10301030;28;20050;-58
2021/11/30 17:07:57;;;;;;;1.73;0.98;;;;;;;5.68;92.93;99386.34;10303556;28;20058;-60
2021/11/30 17:12:59;;;;;;;1.80;0.95;;;;;;;5.69;92.96;99401.22;10293665;28;20804;-61
2021/11/30 17:18:02;;;;;;;1.73;1.30;;;;;;;5.62;93.47;99406.13;10303783;28;20119;-60
2021/11/30 17:23:05;;;;;;;1.23;1.00;;;;;;;5.66;93.93;99400.50;10267033;28;20226;-60
2021/11/30 17:28:09;;;;;;;1.40;1.10;;;;;;;5.68;94.67;99396.91;10285900;28;20068;-59
2021/11/30 17:33:11;;;;;;;1.30;1.20;;;;;;;5.68;94.44;99404.84;10282325;28;20085;-58
2021/11/30 17:38:12;;;;;;;1.27;1.17;;;;;;;5.71;94.13;99413.34;10294855;28;20057;-59
2021/11/30 17:43:15;;;;;;;1.92;1.73;;;;;;;5.76;93.36;99415.66;10294243;28;20060;-59
2021/11/30 17:48:17;;;;;;;1.50;1.05;;;;;;;5.80;93.76;99412.66;10293332;28;20107;-58
2021/11/30 17:53:18;;;;;;;1.40;1.20;;;;;;;5.84;93.40;99418.59;10288330;28;20133;-59
2021/11/30 17:58:20;;;;;;;4.50;1.33;;;;;;;5.88;92.82;99420.03;10290552;28;20073;-59
2021/11/30 18:03:22;;;;;;;1.45;1.30;;;;;;;5.88;92.44;99414.75;10288580;28;20338;-59
2021/11/30 18:08:24;;;;;;;1.35;1.00;;;;;;;5.90;92.50;99433.13;10294494;28;20485;-59
2021/11/30 18:13:25;;;;;;;1.35;1.25;;;;;;;5.93;92.28;99423.19;10293318;28;20152;-60
2021/11/30 18:18:26;;;;;;;1.50;1.20;;;;;;;5.95;92.21;99426.53;10292485;28;20160;-60
2021/11/30 18:23:28;;;;;;;1.55;1.23;;;;;;;5.96;91.71;99407.09;10292064;28;20192;-60
2021/11/30 18:28:31;;;;;;;2.28;1.33;;;;;;;6.00;91.78;99413.88;10289638;28;20064;-60
2021/11/30 18:33:33;;;;;;;1.30;1.00;;;;;;;6.04;91.07;99424.22;10288181;28;20132;-60
2021/11/30 18:38:34;;;;;;;1.20;1.00;;;;;;;6.08;90.74;99428.28;10293413;28;20142;-59
2021/11/30 18:43:35;;;;;;;3.33;2.63;;;;;;;6.15;90.61;99437.44;10289835;28;20064;-60
2021/11/30 18:48:37;;;;;;;2.30;1.42;;;;;;;6.12;90.74;99449.09;10299837;28;20125;-60
2021/11/30 18:53:38;;;;;;;1.13;1.00;;;;;;;6.16;90.02;99447.06;10296085;28;20047;-60
2021/11/30 18:58:43;;;;;;;1.27;1.02;;;;;;;6.16;90.35;99455.00;10290101;28;20058;-60
2021/11/30 19:03:46;;;;;;;1.40;1.17;;;;;;;6.19;90.53;99449.47;10288240;28;20066;-59
2021/11/30 19:08:47;;;;;;;1.40;1.30;;;;;;;6.29;89.88;99458.41;10289877;28;20141;-59
2021/11/30 19:13:49;;;;;;;2.13;1.15;;;;;;;6.25;89.74;99464.03;10293340;28;20086;-59
2021/11/30 19:18:50;;;;;;;1.17;1.00;;;;;;;6.19;90.71;99455.59;10293153;28;20054;-60
2021/11/30 19:23:52;;;;;;;1.02;0.93;;;;;;;6.29;91.09;99466.34;10295420;28;20184;-61
2021/11/30 19:28:54;;;;;;;2.55;1.50;;;;;;;6.32;90.25;99466.09;10291431;28;20635;-61
2021/11/30 19:33:57;;;;;;;1.83;1.00;;;;;;;6.28;90.32;99467.28;10296621;28;20120;-60
2021/11/30 19:39:04;;;;;;;1.27;1.17;;;;;;;6.28;91.06;99464.66;10309503;28;20137;-60
2021/11/30 19:44:08;;;;;;;2.10;1.73;;;;;;;6.28;91.27;99463.81;10295605;28;20054;-61
2021/11/30 19:49:10;;;;;;;1.67;1.45;;;;;;;6.24;91.05;99452.59;10301146;28;20085;-59
2021/11/30 19:54:11;;;;;;;3.53;1.98;;;;;;;6.26;91.41;99493.00;10305000;28;20056;-60
2021/11/30 19:59:13;;;;;;;3.42;1.92;;;;;;;6.33;91.07;99475.69;10303564;28;20068;-60
2021/11/30 20:09:34;;;;;;;1.90;1.40;;;;;;;6.35;90.23;99473.81;10303210;28;20141;-61
2021/11/30 20:14:44;;;;;;;1.60;1.07;;;;;;;6.37;90.84;99466.59;10291618;28;20112;-60
2021/11/30 20:19:45;;;;;;;2.13;1.08;;;;;;;6.39;90.41;99465.63;10294438;28;20409;-61
2021/11/30 20:24:47;;;;;;;1.13;1.02;;;;;;;6.35;89.83;99459.72;10300804;28;20088;-60
2021/11/30 20:29:48;;;;;;;1.05;0.80;;;;;;;6.42;89.96;99465.41;10311783;23;20072;-64
2021/11/30 20:34:55;;;;;;;1.10;1.00;;;;;;;6.44;89.76;99466.13;10326032;28;20059;-64
2021/11/30 20:39:58;;;;;;;1.10;0.90;;;;;;;6.49;89.84;99451.59;10305164;28;20129;-65
2021/11/30 20:45:02;;;;;;;1.23;0.90;;;;;;;6.53;88.75;99461.00;10278480;28;20050;-63
2021/11/30 20:50:05;;;;;;;0.90;0.70;;;;;;;6.55;88.86;99460.88;10220100;28;20832;-63
2021/11/30 20:55:07;;;;;;;0.55;0.45;;;;;;;6.57;87.97;99464.22;10224292;28;20144;-64
2021/11/30 21:00:11;;;;;;;1.10;0.60;;;;;;;6.60;87.76;99471.09;10224983;28;20053;-66
2021/11/30 21:05:17;;;;;;;0.60;0.53;;;;;;;6.62;87.37;99451.53;10281743;28;20145;-64
2021/11/30 21:10:24;;;;;;;0.88;0.47;;;;;;;6.60;87.02;99456.06;10277668;28;20108;-67
2021/11/30 21:15:27;;;;;;;0.60;0.55;;;;;;;6.62;87.17;99459.44;10276706;28;20265;-63
2021/11/30 21:20:30;;;;;;;1.00;0.70;;;;;;;6.68;87.10;99445.75;10277960;28;20181;-64
2021/11/30 21:25:33;;;;;;;0.50;0.50;;;;;;;6.71;87.25;99458.75;10274167;28;20120;-63
2021/11/30 21:30:36;;;;;;;1.00;0.38;;;;;;;6.73;86.32;99443.59;10271110;28;20074;-65
2021/11/30 21:35:38;;;;;;;0.90;0.50;;;;;;;6.75;86.49;99437.34;10279644;28;20586;-63
2021/11/30 21:40:40;;;;;;;0.73;0.57;;;;;;;6.77;87.19;99438.06;10255391;28;20057;-62
2021/11/30 21:45:41;;;;;;;0.60;0.45;;;;;;;6.87;86.23;99431.09;10274466;28;20121;-64
2021/11/30 21:50:44;;;;;;;0.85;0.35;;;;;;;6.85;86.04;99431.22;10276940;28;20065;-65
2021/11/30 21:55:45;;;;;;;0.38;0.28;;;;;;;6.84;85.79;99418.09;10266630;28;20089;-63
2021/11/30 22:00:49;;;;;;;0.40;0.22;;;;;;;6.78;85.61;99413.28;10265145;28;20209;-64
2021/11/30 22:05:51;;;;;;;0.43;0.32;;;;;;;6.75;85.74;99408.25;10274347;28;20211;-64
2021/11/30 22:10:53;;;;;;;1.45;0.52;;;;;;;6.76;85.51;99412.59;10272068;28;20550;-62
2021/11/30 22:15:54;;;;;;;0.60;0.32;;;;;;;6.73;85.75;99414.50;10263396;28;20097;-64
2021/11/30 22:20:58;;;;;;;0.77;0.50;;;;;;;6.80;85.57;99412.22;10259957;28;20137;-63
2021/11/30 22:25:59;;;;;;;0.60;0.35;;;;;;;6.79;85.87;99420.28;10256273;28;20171;-63
2021/11/30 22:31:01;;;;;;;0.40;0.30;;;;;;;6.77;85.88;99411.59;10255101;28;20055;-62
2021/11/30 22:36:03;;;;;;;0.82;0.30;;;;;;;6.72;86.08;99402.25;10260938;28;20109;-63
2021/11/30 22:41:04;;;;;;;0.75;0.40;;;;;;;6.73;85.98;99395.97;10251805;28;21961;-63
2021/11/30 22:46:06;;;;;;;1.05;0.40;;;;;;;6.80;85.59;99395.50;10259542;28;20125;-63
2021/11/30 22:51:09;;;;;;;0.40;0.30;;;;;;;6.83;84.92;99411.13;10258844;28;20133;-63
2021/11/30 22:56:10;;;;;;;0.40;0.20;;;;;;;6.86;85.40;99395.00;10253045;28;20233;-62
2021/11/30 23:01:11;;;;;;;0.60;0.20;;;;;;;6.82;84.87;99388.28;10262519;28;20042;-62
2021/11/30 23:06:13;;;;;;;0.47;0.28;;;;;;;6.78;85.19;99378.91;10254294;28;20062;-62
2021/11/30 23:11:14;;;;;;;0.40;0.28;;;;;;;6.66;85.57;99376.25;10256286;28;20059;-63
2021/11/30 23:16:17;;;;;;;0.63;0.35;;;;;;;6.63;85.58;99389.72;10249663;28;20076;-63
2021/11/30 23:21:25;;;;;;;0.82;0.30;;;;;;;6.64;85.79;99378.19;10251759;28;20043;-62
2021/11/30 23:26:32;;;;;;;0.50;0.30;;;;;;;6.60;85.66;99367.97;10257657;28;21840;-62
2021/11/30 23:31:35;;;;;;;0.32;0.20;;;;;;;6.57;85.60;99363.75;10253714;28;20071;-63
2021/11/30 23:36:37;;;;;;;0.50;0.20;;;;;;;6.45;85.23;99354.13;10253030;28;20559;-66
2021/11/30 23:41:38;;;;;;;1.75;0.47;;;;;;;6.40;85.99;99340.44;10251977;28;20249;-63
2021/11/30 23:46:40;;;;;;;0.80;0.30;;;;;;;6.28;85.86;99342.22;10255632;28;20101;-63
2021/11/30 23:51:42;;;;;;;0.45;0.22;;;;;;;6.29;86.77;99328.91;10254836;28;20149;-62
2021/11/30 23:56:44;;;;;;;0.82;0.20;;;;;;;6.24;86.12;99336.31;10253240;28;20295;-65
